Portada
METAR-TAF:

METAR-TAF

Aeropuertos :

Aeropuerto José Chávez Suárez

Santa Ana del Yacuma, Bolivia

latitud: 13-46S, longitud: 065-26W, altitud: 144 m

Observación

El informe se hizo hace 1 hora y 0 minutos, a las 16:00 UTC
Viento 10 kt del sur
Temperatura 21°C
Humedad 78%
Presión 1019 hPa
Visibilidad: 6000 m
Nubes dispersas a una altura de 2000 ft
Nubes dispersas a una altura de 7000 ft
Cielo cubierto a una altura de 20000 ft

METAR: SLSA 151600Z 17010KT 6000 SCT020 SCT070 OVC200 21/17 Q1019

Hora: 13:00 (17:00 UTC)


TAF: falta

Observaciones y pronósticos meteorológicos de más de 4000 aeropuertos (mensajes METAR y TAF).

Los puntos amarillos y rojos representan las estaciones disponibles.

Ponga el ratón en el punto deseado para ver el nombre de la estación.

Haga clic para ver las observaciones y los pronósticos meteorológicos.

Para cambiar el mapa : haga clic en los botones verdes con una cruz de color negro para hacer un zoom, en el botón verde con un guión para alejar o en las flechas verdes para mapas adyacentes.


METAR-TAF: